Tsukasa — JD3561 — position and weather

sailwx.info

Track history (hours):
 
Tides and Currents Weather Stations Pressure Air Temp Water Temp Dewpoint Dewpoint Depression Visibility Wind Speed Wind Dir Waves Ship Positions

Tsukasa

Last reported at 2018-Jun-19 21:29 UTC. Time now 2018-Jun-19 21:43 UTC.
Position N 35°31' E 139°50'.

Length 104 m; draft 5.5 m.

Type: Tanker. MMSI: 431004957.

Date/timePositionNaut miles runAvg speedWind from/ knotsBaromVisibWave heightAir tempDewpointWater temp
2018-Jun-19 21:29N 35°31' E 139°50'0 0.0
2018-Jun-19 20:59N 35°31' E 139°50'0 0.0
2018-Jun-19 20:29N 35°31' E 139°50'0 0.0
2018-Jun-19 19:59N 35°31' E 139°50'0 0.1
2018-Jun-19 19:26N 35°31' E 139°50'0 0.0
2018-Jun-19 18:59N 35°31' E 139°50'0 0.0
2018-Jun-19 18:29N 35°31' E 139°50'0 0.0
2018-Jun-19 17:59N 35°31' E 139°50'0 0.0
2018-Jun-19 17:26N 35°31' E 139°50'0 0.0
2018-Jun-19 16:59N 35°31' E 139°50'0 0.0
2018-Jun-19 16:29N 35°31' E 139°50'0 0.0
2018-Jun-19 15:59N 35°31' E 139°50'0 0.1
2018-Jun-19 15:29N 35°31' E 139°50'0 0.1
2018-Jun-19 14:50N 35°31' E 139°50'0 0.1
2018-Jun-19 14:23N 35°31' E 139°50'0 0.0
2018-Jun-19 13:59N 35°31' E 139°50'5 9.9
2018-Jun-19 13:30N 35°27' E 139°46'611.6
2018-Jun-19 13:00N 35°24' E 139°40'1 1.3
2018-Jun-19 12:28N 35°25' E 139°39'0 0.0
2018-Jun-19 11:58N 35°25' E 139°39'0 0.0
2018-Jun-19 11:25N 35°25' E 139°39'0 0.0
2018-Jun-19 10:55N 35°25' E 139°39'0 0.0
2018-Jun-19 10:28N 35°25' E 139°39'0 0.0
2018-Jun-19 09:58N 35°25' E 139°39'0 0.0
2018-Jun-19 09:25N 35°25' E 139°39'0 0.0
2018-Jun-19 08:58N 35°25' E 139°39'0 0.0
2018-Jun-19 08:28N 35°25' E 139°39'0 0.0
2018-Jun-19 07:58N 35°25' E 139°39'0 0.0
2018-Jun-19 07:28N 35°25' E 139°39'0 0.0
2018-Jun-19 06:58N 35°25' E 139°39'0 0.0
2018-Jun-19 06:28N 35°25' E 139°39'0 0.0
2018-Jun-19 05:58N 35°25' E 139°39'0 0.0
2018-Jun-19 05:28N 35°25' E 139°39'0 0.2
2018-Jun-19 05:00N 35°24' E 139°39'3 6.7
2018-Jun-19 04:31N 35°22' E 139°42'4 7.1
2018-Jun-19 04:01N 35°19' E 139°42'2 4.5
2018-Jun-19 03:30N 35°17' E 139°41'0 0.0
2018-Jun-19 00:59N 35°17' E 139°41'0 0.0
2018-Jun-18 23:29N 35°17' E 139°41'0 0.0
2018-Jun-18 22:17N 35°17' E 139°41'0 0.0
2018-Jun-18 21:59N 35°17' E 139°41'0 0.0
2018-Jun-18 21:29N 35°17' E 139°41'0 0.0
2018-Jun-18 20:59N 35°17' E 139°41'0 0.0
2018-Jun-18 20:29N 35°17' E 139°41'0 0.0
2018-Jun-18 19:35N 35°17' E 139°41'0 0.0
2018-Jun-18 19:29N 35°17' E 139°41'0 0.0
2018-Jun-18 18:59N 35°17' E 139°41'0 0.0
2018-Jun-18 18:29N 35°17' E 139°41'0 0.0
2018-Jun-18 17:59N 35°17' E 139°41'0 0.0
2018-Jun-18 16:53N 35°17' E 139°41'0 0.0
2018-Jun-18 16:29N 35°17' E 139°41'0 0.0
2018-Jun-18 15:59N 35°17' E 139°41'0 0.0
2018-Jun-18 14:59N 35°17' E 139°41'0 0.0
2018-Jun-18 13:47N 35°17' E 139°41'0 0.0
2018-Jun-18 09:29N 35°17' E 139°41'0 0.0
2018-Jun-18 08:59N 35°17' E 139°41'0 0.0
2018-Jun-18 08:29N 35°17' E 139°41'0 0.0
2018-Jun-18 07:21N 35°17' E 139°41'0 0.3
2018-Jun-18 07:00N 35°17' E 139°41'510.1
2018-Jun-18 06:30N 35°22' E 139°42'714.1
2018-Jun-18 06:00N 35°28' E 139°46'4 7.9
2018-Jun-18 05:30N 35°32' E 139°48'0 0.0
2018-Jun-18 04:59N 35°32' E 139°48'0 0.0
2018-Jun-18 04:29N 35°32' E 139°48'0 0.0
2018-Jun-18 03:59N 35°32' E 139°48'0 0.0
2018-Jun-18 03:26N 35°32' E 139°48'0 0.0
2018-Jun-18 02:59N 35°32' E 139°48'0 0.0
2018-Jun-18 02:26N 35°32' E 139°48'0 0.0
2018-Jun-18 01:59N 35°32' E 139°48'0 0.0
2018-Jun-18 01:29N 35°32' E 139°48'0 0.0
2018-Jun-18 01:00N 35°32' E 139°48'1 1.3
2018-Jun-18 00:30N 35°31' E 139°48'3 5.9
2018-Jun-18 00:00N 35°28' E 139°47'510.2
2018-Jun-17 23:30N 35°25' E 139°43'1 2.3
2018-Jun-17 23:00N 35°24' E 139°44'0 0.0
2018-Jun-17 22:30N 35°24' E 139°44'0 0.0
2018-Jun-17 22:00N 35°24' E 139°44'0 0.1
2018-Jun-17 21:30N 35°24' E 139°44'0 0.1
2018-Jun-17 21:00N 35°24' E 139°44'0 0.1
2018-Jun-17 20:30N 35°24' E 139°44'0 0.0
2018-Jun-17 20:00N 35°24' E 139°44'0 0.0
2018-Jun-17 19:30N 35°24' E 139°44'0 0.0
2018-Jun-17 19:00N 35°24' E 139°44'0 0.0
2018-Jun-17 18:30N 35°24' E 139°44'0 0.0
2018-Jun-17 18:00N 35°24' E 139°44'0 0.1
2018-Jun-17 17:30N 35°24' E 139°44'0 0.0
2018-Jun-17 17:00N 35°24' E 139°44'0 0.0
2018-Jun-17 16:30N 35°24' E 139°44'0 0.0
2018-Jun-17 16:00N 35°24' E 139°44'0 0.0
2018-Jun-17 15:27N 35°24' E 139°44'0 0.0
2018-Jun-17 15:00N 35°24' E 139°44'0 0.0
2018-Jun-17 14:30N 35°24' E 139°44'0 0.0
2018-Jun-17 14:00N 35°24' E 139°44'0 0.1
2018-Jun-17 13:30N 35°24' E 139°44'4 7.2
2018-Jun-17 13:00N 35°24' E 139°40'0 0.6
2018-Jun-17 12:28N 35°25' E 139°39'0 0.0
2018-Jun-17 11:58N 35°25' E 139°39'0 0.0
2018-Jun-17 11:28N 35°25' E 139°39'0 0.0
2018-Jun-17 11:01N 35°25' E 139°39'0 0.0
2018-Jun-17 10:31N 35°25' E 139°39'0 0.0
2018-Jun-17 09:58N 35°25' E 139°39'0 0.0
2018-Jun-17 09:28N 35°25' E 139°39'0 0.0
2018-Jun-17 09:01N 35°25' E 139°39'0 0.0
2018-Jun-17 08:28N 35°25' E 139°39'0 0.0
2018-Jun-17 08:01N 35°25' E 139°39'0 0.0
2018-Jun-17 07:31N 35°25' E 139°39'0 0.0
2018-Jun-17 07:01N 35°25' E 139°39'0 0.0
2018-Jun-17 06:28N 35°25' E 139°39'0 0.0
2018-Jun-17 06:00N 35°25' E 139°39'0 0.0
2018-Jun-17 05:28N 35°25' E 139°39'0 0.1
2018-Jun-17 05:00N 35°25' E 139°39'4 7.3
2018-Jun-17 04:30N 35°26' E 139°44'713.4
2018-Jun-17 04:00N 35°31' E 139°48'1 1.5
2018-Jun-17 03:28N 35°32' E 139°48'0 0.0
2018-Jun-17 02:58N 35°32' E 139°48'0 0.0
2018-Jun-17 02:28N 35°32' E 139°48'0 0.0
2018-Jun-17 01:55N 35°32' E 139°48'0 0.0
2018-Jun-17 01:28N 35°32' E 139°48'0 0.0
2018-Jun-17 00:58N 35°32' E 139°48'0 0.0
2018-Jun-17 00:30N 35°32' E 139°48'1 1.3
2018-Jun-17 00:00N 35°31' E 139°48'2 3.7
2018-Jun-16 23:28N 35°31' E 139°50'0 0.0
2018-Jun-16 22:58N 35°31' E 139°50'0 0.0
2018-Jun-16 22:22N 35°31' E 139°50'0 0.0
2018-Jun-16 21:58N 35°31' E 139°50'0 0.1
2018-Jun-16 21:16N 35°31' E 139°50'0 0.0
2018-Jun-16 19:43N 35°31' E 139°50'0 0.2
2018-Jun-16 19:25N 35°31' E 139°50'0 0.0
2018-Jun-16 18:58N 35°31' E 139°50'0 0.0
2018-Jun-16 17:49N 35°31' E 139°50'0 0.0
2018-Jun-16 17:28N 35°31' E 139°50'0 0.0
2018-Jun-16 16:55N 35°31' E 139°50'0 0.0
2018-Jun-16 15:40N 35°31' E 139°50'0 0.0
2018-Jun-16 15:28N 35°31' E 139°50'0 0.0
2018-Jun-16 14:58N 35°31' E 139°50'0 0.0
2018-Jun-16 14:28N 35°31' E 139°50'0 0.0
2018-Jun-16 13:13N 35°31' E 139°50'0 0.0
2018-Jun-16 12:46N 35°31' E 139°50'0 0.0
2018-Jun-16 11:46N 35°31' E 139°50'0 0.0
2018-Jun-16 11:22N 35°31' E 139°50'0 0.1
2018-Jun-16 10:58N 35°31' E 139°50'0 0.1
2018-Jun-16 10:10N 35°31' E 139°50'0 0.2
2018-Jun-16 10:00N 35°31' E 139°50'510.2
2018-Jun-16 09:30N 35°30' E 139°57'3 0.8
2018-Jun-16 04:58N 35°29' E 140°01'4 9.5
2018-Jun-16 04:31N 35°30' E 139°56'612.2
2018-Jun-16 04:00N 35°31' E 139°48'1 1.6
2018-Jun-16 03:31N 35°32' E 139°48'0 0.0
2018-Jun-16 03:01N 35°32' E 139°48'0 0.0
2018-Jun-16 02:31N 35°32' E 139°48'0 0.0
2018-Jun-16 02:01N 35°32' E 139°48'0 0.0
2018-Jun-16 01:28N 35°32' E 139°48'0 0.0
2018-Jun-16 00:58N 35°32' E 139°48'0 0.0
2018-Jun-16 00:28N 35°32' E 139°48'0 0.0
2018-Jun-16 00:00N 35°32' E 139°48'1 2.9
2018-Jun-15 23:30N 35°31' E 139°49'1 2.1
2018-Jun-15 23:01N 35°30' E 139°49'0 0.0
2018-Jun-15 22:30N 35°30' E 139°49'0 0.0
2018-Jun-15 22:00N 35°30' E 139°49'0 0.0
2018-Jun-15 21:30N 35°30' E 139°49'0 0.0
2018-Jun-15 20:54N 35°30' E 139°49'0 0.0
2018-Jun-15 20:30N 35°30' E 139°49'0 0.0
2018-Jun-15 20:00N 35°30' E 139°49'0 0.0
2018-Jun-15 19:30N 35°30' E 139°49'0 0.0
2018-Jun-15 19:00N 35°30' E 139°49'0 0.1
2018-Jun-15 18:24N 35°30' E 139°49'0 0.0
2018-Jun-15 18:00N 35°30' E 139°49'0 0.0
2018-Jun-15 17:27N 35°30' E 139°49'0 0.0
2018-Jun-15 16:48N 35°30' E 139°49'0 0.2
2018-Jun-15 16:30N 35°30' E 139°49'0 0.0
2018-Jun-15 16:00N 35°30' E 139°49'0 0.0
2018-Jun-15 15:27N 35°30' E 139°49'0 0.0
2018-Jun-15 14:57N 35°30' E 139°49'0 0.0
2018-Jun-15 14:30N 35°30' E 139°49'0 0.1
2018-Jun-15 13:58N 35°30' E 139°50'4 8.8
2018-Jun-15 13:30N 35°27' E 139°46'611.3
2018-Jun-15 13:00N 35°24' E 139°40'1 2.3
2018-Jun-15 12:30N 35°25' E 139°39'0 0.0
2018-Jun-15 11:57N 35°25' E 139°39'0 0.0
2018-Jun-15 11:30N 35°25' E 139°39'0 0.0
2018-Jun-15 11:00N 35°25' E 139°39'0 0.0
2018-Jun-15 10:30N 35°25' E 139°39'0 0.0
2018-Jun-15 10:00N 35°25' E 139°39'0 0.0
2018-Jun-15 09:30N 35°25' E 139°39'0 0.0
2018-Jun-15 09:00N 35°25' E 139°39'0 0.0
2018-Jun-15 08:30N 35°25' E 139°39'0 0.0
2018-Jun-15 08:00N 35°25' E 139°39'0 0.0
2018-Jun-15 07:30N 35°25' E 139°39'0 0.0
2018-Jun-15 07:00N 35°25' E 139°39'0 0.0
2018-Jun-15 06:24N 35°25' E 139°39'0 0.0
2018-Jun-15 06:00N 35°25' E 139°39'0 0.0
2018-Jun-15 05:30N 35°25' E 139°39'0 0.0
2018-Jun-15 05:00N 35°25' E 139°39'1 2.3
2018-Jun-15 04:30N 35°24' E 139°40'3 6.0
2018-Jun-15 04:00N 35°23' E 139°44'1 2.5
2018-Jun-15 03:30N 35°24' E 139°44'4 7.1
2018-Jun-15 03:00N 35°27' E 139°47'5 9.8
2018-Jun-15 02:31N 35°32' E 139°48'0 0.0
2018-Jun-14 22:48N 35°32' E 139°48'0 0.2
2018-Jun-14 22:30N 35°32' E 139°48'2 4.6
2018-Jun-14 22:01N 35°30' E 139°50'0 0.9
2018-Jun-14 21:30N 35°30' E 139°50'0 0.0
2018-Jun-14 21:00N 35°30' E 139°50'0 0.0
2018-Jun-14 20:30N 35°30' E 139°50'0 0.0
2018-Jun-14 19:57N 35°30' E 139°50'0 0.1
2018-Jun-14 19:24N 35°30' E 139°50'0 0.2
2018-Jun-14 19:00N 35°30' E 139°50'0 0.0
2018-Jun-14 18:30N 35°30' E 139°50'0 0.0
2018-Jun-14 18:00N 35°30' E 139°50'0 0.0
2018-Jun-14 17:30N 35°30' E 139°50'0 0.0
2018-Jun-14 17:00N 35°30' E 139°50'0 0.0
2018-Jun-14 16:30N 35°30' E 139°50'0 0.1
2018-Jun-14 15:54N 35°30' E 139°50'0 0.0
2018-Jun-14 15:30N 35°30' E 139°50'0 0.0
2018-Jun-14 15:00N 35°30' E 139°50'0 0.1
2018-Jun-14 14:27N 35°30' E 139°50'0 0.1
2018-Jun-14 13:57N 35°30' E 139°50'0 0.1
2018-Jun-14 13:27N 35°30' E 139°50'0 0.0
2018-Jun-14 12:57N 35°30' E 139°50'0 0.0
2018-Jun-14 12:09N 35°30' E 139°50'0 0.4
2018-Jun-14 12:00N 35°30' E 139°50'0 0.0
2018-Jun-14 11:27N 35°30' E 139°50'0 0.2
2018-Jun-14 11:00N 35°30' E 139°50'0 0.6
2018-Jun-14 10:30N 35°30' E 139°51'612.3
2018-Jun-14 10:00N 35°30' E 139°58'2 0.3
2018-Jun-14 04:03N 35°29' E 140°00'0 4.4
2018-Jun-14 04:00N 35°29' E 140°00'3 3.5
2018-Jun-14 03:13N 35°30' E 139°57'2 9.3
2018-Jun-14 02:59N 35°30' E 139°54'510.8
2018-Jun-14 02:30N 35°31' E 139°48'1 0.2
2018-Jun-13 22:42N 35°32' E 139°48'0 0.1
2018-Jun-13 22:30N 35°32' E 139°48'2 3.5
2018-Jun-13 22:00N 35°31' E 139°50'0 0.2
2018-Jun-13 19:58N 35°31' E 139°50'0 0.1
2018-Jun-13 19:25N 35°31' E 139°50'0 0.0
2018-Jun-13 18:58N 35°31' E 139°50'0 0.1
2018-Jun-13 17:40N 35°31' E 139°50'0 0.0
2018-Jun-13 17:28N 35°31' E 139°50'0 0.0
2018-Jun-13 16:58N 35°31' E 139°50'0 0.0
2018-Jun-13 15:34N 35°31' E 139°50'0 0.0
2018-Jun-13 15:28N 35°31' E 139°50'0 0.0
2018-Jun-13 14:58N 35°31' E 139°50'0 0.1
2018-Jun-13 14:28N 35°31' E 139°50'2 5.4
2018-Jun-13 14:00N 35°29' E 139°48'714.4
2018-Jun-13 13:30N 35°24' E 139°42'2 4.3
2018-Jun-13 13:00N 35°25' E 139°39'0 0.0
2018-Jun-13 12:30N 35°25' E 139°39'0 0.0
2018-Jun-13 12:00N 35°25' E 139°39'0 0.0
2018-Jun-13 11:27N 35°25' E 139°39'0 0.0
2018-Jun-13 10:57N 35°25' E 139°39'0 0.0
2018-Jun-13 10:30N 35°25' E 139°39'0 0.0
2018-Jun-13 10:00N 35°25' E 139°39'0 0.0
2018-Jun-13 09:30N 35°25' E 139°39'0 0.0
2018-Jun-13 09:00N 35°25' E 139°39'0 0.0
2018-Jun-13 08:30N 35°25' E 139°39'0 0.0
2018-Jun-13 07:57N 35°25' E 139°39'0 0.0
2018-Jun-13 07:30N 35°25' E 139°39'0 0.0
2018-Jun-13 07:00N 35°25' E 139°39'0 0.0
2018-Jun-13 06:30N 35°25' E 139°39'0 0.0
2018-Jun-13 05:57N 35°25' E 139°39'0 0.0
2018-Jun-13 05:30N 35°25' E 139°39'0 1.0
2018-Jun-13 05:00N 35°24' E 139°40'4 7.2
2018-Jun-13 04:30N 35°22' E 139°43'0 0.3
2018-Jun-13 03:58N 35°22' E 139°44'0 0.0
2018-Jun-13 03:25N 35°22' E 139°44'0 0.1
2018-Jun-13 02:58N 35°22' E 139°44'0 0.0
2018-Jun-13 02:28N 35°22' E 139°44'0 0.1
2018-Jun-13 01:58N 35°22' E 139°43'0 0.0
2018-Jun-13 01:28N 35°22' E 139°43'0 0.0
2018-Jun-13 00:58N 35°22' E 139°43'0 0.0
2018-Jun-13 00:28N 35°22' E 139°43'0 0.1
2018-Jun-12 23:58N 35°22' E 139°44'0 0.0
2018-Jun-12 23:28N 35°22' E 139°44'0 0.0
2018-Jun-12 22:55N 35°22' E 139°44'0 0.0
2018-Jun-12 22:28N 35°22' E 139°44'0 0.0
2018-Jun-12 21:58N 35°22' E 139°44'0 0.0
2018-Jun-12 21:28N 35°22' E 139°44'0 0.0
2018-Jun-12 20:58N 35°22' E 139°44'0 0.0
2018-Jun-12 20:28N 35°22' E 139°44'0 0.0
2018-Jun-12 19:58N 35°22' E 139°44'0 0.1
2018-Jun-12 19:28N 35°22' E 139°43'0 0.1
2018-Jun-12 18:58N 35°22' E 139°44'0 0.1
2018-Jun-12 18:28N 35°22' E 139°43'0 0.1
2018-Jun-12 17:58N 35°22' E 139°44'0 0.0
2018-Jun-12 17:28N 35°22' E 139°44'0 0.0
2018-Jun-12 16:55N 35°22' E 139°44'0 0.1
2018-Jun-12 16:28N 35°22' E 139°43'0 0.0
2018-Jun-12 15:58N 35°22' E 139°43'0 0.0
2018-Jun-12 15:28N 35°22' E 139°43'0 0.0
2018-Jun-12 14:58N 35°22' E 139°43'0 0.0
2018-Jun-12 14:25N 35°22' E 139°43'0 0.0
2018-Jun-12 13:58N 35°22' E 139°43'0 0.0
2018-Jun-12 13:28N 35°22' E 139°43'0 0.0
2018-Jun-12 12:58N 35°22' E 139°43'0 0.0
2018-Jun-12 12:28N 35°22' E 139°43'0 0.0
2018-Jun-12 11:58N 35°22' E 139°43'0 0.0
2018-Jun-12 11:28N 35°22' E 139°43'0 0.0
2018-Jun-12 10:58N 35°22' E 139°43'0 0.1
2018-Jun-12 10:28N 35°22' E 139°44'0 0.0
2018-Jun-12 09:58N 35°22' E 139°44'0 0.0
2018-Jun-12 09:28N 35°22' E 139°44'0 0.1
2018-Jun-12 08:58N 35°22' E 139°44'0 0.3
2018-Jun-12 08:28N 35°22' E 139°44'0 0.2
2018-Jun-12 07:58N 35°22' E 139°44'0 0.0
2018-Jun-12 07:28N 35°22' E 139°44'0 0.1
2018-Jun-12 06:58N 35°22' E 139°44'0 0.0
2018-Jun-12 06:28N 35°22' E 139°44'0 0.0
2018-Jun-12 05:58N 35°22' E 139°44'0 0.0
2018-Jun-12 05:28N 35°22' E 139°44'0 0.0
2018-Jun-12 04:58N 35°22' E 139°44'0 0.0
2018-Jun-12 04:28N 35°22' E 139°44'0 0.0
2018-Jun-12 03:58N 35°22' E 139°44'0 0.1
2018-Jun-12 03:25N 35°22' E 139°44'2 4.7
2018-Jun-12 03:01N 35°21' E 139°42'2 4.3
2018-Jun-12 02:30N 35°23' E 139°41'2 4.6
2018-Jun-12 02:00N 35°23' E 139°44'0 0.9
2018-Jun-12 01:30N 35°23' E 139°44'4 7.6
2018-Jun-12 01:01N 35°26' E 139°46'714.5
2018-Jun-12 00:30N 35°31' E 139°53'611.3
2018-Jun-11 23:57N 35°34' E 140°00'6 0.3
2018-Jun-11 03:58N 35°30' E 139°54'613.3
2018-Jun-11 03:30N 35°26' E 139°48'611.1
2018-Jun-11 03:00N 35°22' E 139°44'0 0.2
2018-Jun-11 02:30N 35°22' E 139°44'0 0.0
2018-Jun-11 02:00N 35°22' E 139°44'0 0.0
2018-Jun-11 01:30N 35°22' E 139°44'0 0.0
2018-Jun-11 01:00N 35°22' E 139°44'0 0.1
2018-Jun-11 00:30N 35°22' E 139°44'3 6.4
2018-Jun-11 00:00N 35°24' E 139°40'1 2.1
2018-Jun-10 23:28N 35°25' E 139°39'1 2.6
2018-Jun-10 23:00N 35°24' E 139°40'3 5.6
2018-Jun-10 22:30N 35°23' E 139°43'0 0.0
2018-Jun-10 22:00N 35°23' E 139°43'0 0.0
2018-Jun-10 21:30N 35°23' E 139°43'0 0.0
2018-Jun-10 21:00N 35°23' E 139°43'0 0.0
2018-Jun-10 20:30N 35°23' E 139°43'0 0.0
2018-Jun-10 20:00N 35°23' E 139°43'0 0.0
2018-Jun-10 19:30N 35°23' E 139°43'0 0.0
2018-Jun-10 19:00N 35°23' E 139°43'0 0.0
2018-Jun-10 18:30N 35°23' E 139°43'0 0.0
2018-Jun-10 18:00N 35°23' E 139°43'0 0.0
2018-Jun-10 17:30N 35°23' E 139°43'0 0.0
2018-Jun-10 17:00N 35°23' E 139°43'0 0.0
2018-Jun-10 16:30N 35°23' E 139°43'0 0.0
2018-Jun-10 16:00N 35°23' E 139°43'0 0.0
2018-Jun-10 15:30N 35°23' E 139°43'0 0.0
2018-Jun-10 15:00N 35°23' E 139°43'0 0.1
2018-Jun-10 14:00N 35°23' E 139°43'0 0.0
2018-Jun-10 13:30N 35°23' E 139°43'0 0.0
2018-Jun-10 13:00N 35°23' E 139°43'0 0.0
2018-Jun-10 12:30N 35°23' E 139°43'0 0.0
2018-Jun-10 12:00N 35°23' E 139°43'0 0.0
2018-Jun-10 11:30N 35°23' E 139°43'0 0.1
2018-Jun-10 11:00N 35°23' E 139°43'0 0.1
2018-Jun-10 10:30N 35°23' E 139°43'0 0.0
2018-Jun-10 10:00N 35°23' E 139°43'0 0.0
2018-Jun-10 09:30N 35°23' E 139°43'0 0.0
2018-Jun-10 09:00N 35°23' E 139°43'0 0.1
2018-Jun-10 08:30N 35°23' E 139°43'0 0.0
2018-Jun-10 08:00N 35°23' E 139°43'0 0.0
2018-Jun-10 07:30N 35°23' E 139°43'0 0.2
2018-Jun-10 07:00N 35°23' E 139°43'5 9.9
2018-Jun-10 06:30N 35°26' E 139°48'815.7
2018-Jun-10 06:00N 35°32' E 139°55'3 0.4
2018-Jun-09 22:01N 35°33' E 139°58'0 0.3
2018-Jun-09 21:39N 35°33' E 139°58'  
Track history (hours):
 
Tides and Currents Weather Stations Pressure Air Temp Water Temp Dewpoint Dewpoint Depression Visibility Wind Speed Wind Dir Waves Ship Positions

Tsukasa

Last reported at 2018-Jun-19 21:29 UTC. Time now 2018-Jun-19 21:43 UTC.
Position N 35°31' E 139°50'.

Length 104 m; draft 5.5 m.

Type: Tanker. MMSI: 431004957.

Date/timePositionNaut miles runAvg speedWind from/ knotsBaromVisibWave heightAir tempDewpointWater temp
2018-Jun-19 21:29N 35°31' E 139°50'0 0.0
2018-Jun-19 20:59N 35°31' E 139°50'0 0.0
2018-Jun-19 20:29N 35°31' E 139°50'0 0.0
2018-Jun-19 19:59N 35°31' E 139°50'0 0.1
2018-Jun-19 19:26N 35°31' E 139°50'0 0.0
2018-Jun-19 18:59N 35°31' E 139°50'0 0.0
2018-Jun-19 18:29N 35°31' E 139°50'0 0.0
2018-Jun-19 17:59N 35°31' E 139°50'0 0.0
2018-Jun-19 17:26N 35°31' E 139°50'0 0.0
2018-Jun-19 16:59N 35°31' E 139°50'0 0.0
2018-Jun-19 16:29N 35°31' E 139°50'0 0.0
2018-Jun-19 15:59N 35°31' E 139°50'0 0.1
2018-Jun-19 15:29N 35°31' E 139°50'0 0.1
2018-Jun-19 14:50N 35°31' E 139°50'0 0.1
2018-Jun-19 14:23N 35°31' E 139°50'0 0.0
2018-Jun-19 13:59N 35°31' E 139°50'5 9.9
2018-Jun-19 13:30N 35°27' E 139°46'611.6
2018-Jun-19 13:00N 35°24' E 139°40'1 1.3
2018-Jun-19 12:28N 35°25' E 139°39'0 0.0
2018-Jun-19 11:58N 35°25' E 139°39'0 0.0
2018-Jun-19 11:25N 35°25' E 139°39'0 0.0
2018-Jun-19 10:55N 35°25' E 139°39'0 0.0
2018-Jun-19 10:28N 35°25' E 139°39'0 0.0
2018-Jun-19 09:58N 35°25' E 139°39'0 0.0
2018-Jun-19 09:25N 35°25' E 139°39'0 0.0
2018-Jun-19 08:58N 35°25' E 139°39'0 0.0
2018-Jun-19 08:28N 35°25' E 139°39'0 0.0
2018-Jun-19 07:58N 35°25' E 139°39'0 0.0
2018-Jun-19 07:28N 35°25' E 139°39'0 0.0
2018-Jun-19 06:58N 35°25' E 139°39'0 0.0
2018-Jun-19 06:28N 35°25' E 139°39'0 0.0
2018-Jun-19 05:58N 35°25' E 139°39'0 0.0
2018-Jun-19 05:28N 35°25' E 139°39'0 0.2
2018-Jun-19 05:00N 35°24' E 139°39'3 6.7
2018-Jun-19 04:31N 35°22' E 139°42'4 7.1
2018-Jun-19 04:01N 35°19' E 139°42'2 4.5
2018-Jun-19 03:30N 35°17' E 139°41'0 0.0
2018-Jun-19 00:59N 35°17' E 139°41'0 0.0
2018-Jun-18 23:29N 35°17' E 139°41'0 0.0
2018-Jun-18 22:17N 35°17' E 139°41'0 0.0
2018-Jun-18 21:59N 35°17' E 139°41'0 0.0
2018-Jun-18 21:29N 35°17' E 139°41'0 0.0
2018-Jun-18 20:59N 35°17' E 139°41'0 0.0
2018-Jun-18 20:29N 35°17' E 139°41'0 0.0
2018-Jun-18 19:35N 35°17' E 139°41'0 0.0
2018-Jun-18 19:29N 35°17' E 139°41'0 0.0
2018-Jun-18 18:59N 35°17' E 139°41'0 0.0
2018-Jun-18 18:29N 35°17' E 139°41'0 0.0
2018-Jun-18 17:59N 35°17' E 139°41'0 0.0
2018-Jun-18 16:53N 35°17' E 139°41'0 0.0
2018-Jun-18 16:29N 35°17' E 139°41'0 0.0
2018-Jun-18 15:59N 35°17' E 139°41'0 0.0
2018-Jun-18 14:59N 35°17' E 139°41'0 0.0
2018-Jun-18 13:47N 35°17' E 139°41'0 0.0
2018-Jun-18 09:29N 35°17' E 139°41'0 0.0
2018-Jun-18 08:59N 35°17' E 139°41'0 0.0
2018-Jun-18 08:29N 35°17' E 139°41'0 0.0
2018-Jun-18 07:21N 35°17' E 139°41'0 0.3
2018-Jun-18 07:00N 35°17' E 139°41'510.1
2018-Jun-18 06:30N 35°22' E 139°42'714.1
2018-Jun-18 06:00N 35°28' E 139°46'4 7.9
2018-Jun-18 05:30N 35°32' E 139°48'0 0.0
2018-Jun-18 04:59N 35°32' E 139°48'0 0.0
2018-Jun-18 04:29N 35°32' E 139°48'0 0.0
2018-Jun-18 03:59N 35°32' E 139°48'0 0.0
2018-Jun-18 03:26N 35°32' E 139°48'0 0.0
2018-Jun-18 02:59N 35°32' E 139°48'0 0.0
2018-Jun-18 02:26N 35°32' E 139°48'0 0.0
2018-Jun-18 01:59N 35°32' E 139°48'0 0.0
2018-Jun-18 01:29N 35°32' E 139°48'0 0.0
2018-Jun-18 01:00N 35°32' E 139°48'1 1.3
2018-Jun-18 00:30N 35°31' E 139°48'3 5.9
2018-Jun-18 00:00N 35°28' E 139°47'510.2
2018-Jun-17 23:30N 35°25' E 139°43'1 2.3
2018-Jun-17 23:00N 35°24' E 139°44'0 0.0
2018-Jun-17 22:30N 35°24' E 139°44'0 0.0
2018-Jun-17 22:00N 35°24' E 139°44'0 0.1
2018-Jun-17 21:30N 35°24' E 139°44'0 0.1
2018-Jun-17 21:00N 35°24' E 139°44'0 0.1
2018-Jun-17 20:30N 35°24' E 139°44'0 0.0
2018-Jun-17 20:00N 35°24' E 139°44'0 0.0
2018-Jun-17 19:30N 35°24' E 139°44'0 0.0
2018-Jun-17 19:00N 35°24' E 139°44'0 0.0
2018-Jun-17 18:30N 35°24' E 139°44'0 0.0
2018-Jun-17 18:00N 35°24' E 139°44'0 0.1
2018-Jun-17 17:30N 35°24' E 139°44'0 0.0
2018-Jun-17 17:00N 35°24' E 139°44'0 0.0
2018-Jun-17 16:30N 35°24' E 139°44'0 0.0
2018-Jun-17 16:00N 35°24' E 139°44'0 0.0
2018-Jun-17 15:27N 35°24' E 139°44'0 0.0
2018-Jun-17 15:00N 35°24' E 139°44'0 0.0
2018-Jun-17 14:30N 35°24' E 139°44'0 0.0
2018-Jun-17 14:00N 35°24' E 139°44'0 0.1
2018-Jun-17 13:30N 35°24' E 139°44'4 7.2
2018-Jun-17 13:00N 35°24' E 139°40'0 0.6
2018-Jun-17 12:28N 35°25' E 139°39'0 0.0
2018-Jun-17 11:58N 35°25' E 139°39'0 0.0
2018-Jun-17 11:28N 35°25' E 139°39'0 0.0
2018-Jun-17 11:01N 35°25' E 139°39'0 0.0
2018-Jun-17 10:31N 35°25' E 139°39'0 0.0
2018-Jun-17 09:58N 35°25' E 139°39'0 0.0
2018-Jun-17 09:28N 35°25' E 139°39'0 0.0
2018-Jun-17 09:01N 35°25' E 139°39'0 0.0
2018-Jun-17 08:28N 35°25' E 139°39'0 0.0
2018-Jun-17 08:01N 35°25' E 139°39'0 0.0
2018-Jun-17 07:31N 35°25' E 139°39'0 0.0
2018-Jun-17 07:01N 35°25' E 139°39'0 0.0
2018-Jun-17 06:28N 35°25' E 139°39'0 0.0
2018-Jun-17 06:00N 35°25' E 139°39'0 0.0
2018-Jun-17 05:28N 35°25' E 139°39'0 0.1
2018-Jun-17 05:00N 35°25' E 139°39'4 7.3
2018-Jun-17 04:30N 35°26' E 139°44'713.4
2018-Jun-17 04:00N 35°31' E 139°48'1 1.5
2018-Jun-17 03:28N 35°32' E 139°48'0 0.0
2018-Jun-17 02:58N 35°32' E 139°48'0 0.0
2018-Jun-17 02:28N 35°32' E 139°48'0 0.0
2018-Jun-17 01:55N 35°32' E 139°48'0 0.0
2018-Jun-17 01:28N 35°32' E 139°48'0 0.0
2018-Jun-17 00:58N 35°32' E 139°48'0 0.0
2018-Jun-17 00:30N 35°32' E 139°48'1 1.3
2018-Jun-17 00:00N 35°31' E 139°48'2 3.7
2018-Jun-16 23:28N 35°31' E 139°50'0 0.0
2018-Jun-16 22:58N 35°31' E 139°50'0 0.0
2018-Jun-16 22:22N 35°31' E 139°50'0 0.0
2018-Jun-16 21:58N 35°31' E 139°50'0 0.1
2018-Jun-16 21:16N 35°31' E 139°50'0 0.0
2018-Jun-16 19:43N 35°31' E 139°50'0 0.2
2018-Jun-16 19:25N 35°31' E 139°50'0 0.0
2018-Jun-16 18:58N 35°31' E 139°50'0 0.0
2018-Jun-16 17:49N 35°31' E 139°50'0 0.0
2018-Jun-16 17:28N 35°31' E 139°50'0 0.0
2018-Jun-16 16:55N 35°31' E 139°50'0 0.0
2018-Jun-16 15:40N 35°31' E 139°50'0 0.0
2018-Jun-16 15:28N 35°31' E 139°50'0 0.0
2018-Jun-16 14:58N 35°31' E 139°50'0 0.0
2018-Jun-16 14:28N 35°31' E 139°50'0 0.0
2018-Jun-16 13:13N 35°31' E 139°50'0 0.0
2018-Jun-16 12:46N 35°31' E 139°50'0 0.0
2018-Jun-16 11:46N 35°31' E 139°50'0 0.0
2018-Jun-16 11:22N 35°31' E 139°50'0 0.1
2018-Jun-16 10:58N 35°31' E 139°50'0 0.1
2018-Jun-16 10:10N 35°31' E 139°50'0 0.2
2018-Jun-16 10:00N 35°31' E 139°50'510.2
2018-Jun-16 09:30N 35°30' E 139°57'3 0.8
2018-Jun-16 04:58N 35°29' E 140°01'4 9.5
2018-Jun-16 04:31N 35°30' E 139°56'612.2
2018-Jun-16 04:00N 35°31' E 139°48'1 1.6
2018-Jun-16 03:31N 35°32' E 139°48'0 0.0
2018-Jun-16 03:01N 35°32' E 139°48'0 0.0
2018-Jun-16 02:31N 35°32' E 139°48'0 0.0
2018-Jun-16 02:01N 35°32' E 139°48'0 0.0
2018-Jun-16 01:28N 35°32' E 139°48'0 0.0
2018-Jun-16 00:58N 35°32' E 139°48'0 0.0
2018-Jun-16 00:28N 35°32' E 139°48'0 0.0
2018-Jun-16 00:00N 35°32' E 139°48'1 2.9
2018-Jun-15 23:30N 35°31' E 139°49'1 2.1
2018-Jun-15 23:01N 35°30' E 139°49'0 0.0
2018-Jun-15 22:30N 35°30' E 139°49'0 0.0
2018-Jun-15 22:00N 35°30' E 139°49'0 0.0
2018-Jun-15 21:30N 35°30' E 139°49'0 0.0
2018-Jun-15 20:54N 35°30' E 139°49'0 0.0
2018-Jun-15 20:30N 35°30' E 139°49'0 0.0
2018-Jun-15 20:00N 35°30' E 139°49'0 0.0
2018-Jun-15 19:30N 35°30' E 139°49'0 0.0
2018-Jun-15 19:00N 35°30' E 139°49'0 0.1
2018-Jun-15 18:24N 35°30' E 139°49'0 0.0
2018-Jun-15 18:00N 35°30' E 139°49'0 0.0
2018-Jun-15 17:27N 35°30' E 139°49'0 0.0
2018-Jun-15 16:48N 35°30' E 139°49'0 0.2
2018-Jun-15 16:30N 35°30' E 139°49'0 0.0
2018-Jun-15 16:00N 35°30' E 139°49'0 0.0
2018-Jun-15 15:27N 35°30' E 139°49'0 0.0
2018-Jun-15 14:57N 35°30' E 139°49'0 0.0
2018-Jun-15 14:30N 35°30' E 139°49'0 0.1
2018-Jun-15 13:58N 35°30' E 139°50'4 8.8
2018-Jun-15 13:30N 35°27' E 139°46'611.3
2018-Jun-15 13:00N 35°24' E 139°40'1 2.3
2018-Jun-15 12:30N 35°25' E 139°39'0 0.0
2018-Jun-15 11:57N 35°25' E 139°39'0 0.0
2018-Jun-15 11:30N 35°25' E 139°39'0 0.0
2018-Jun-15 11:00N 35°25' E 139°39'0 0.0
2018-Jun-15 10:30N 35°25' E 139°39'0 0.0
2018-Jun-15 10:00N 35°25' E 139°39'0 0.0
2018-Jun-15 09:30N 35°25' E 139°39'0 0.0
2018-Jun-15 09:00N 35°25' E 139°39'0 0.0
2018-Jun-15 08:30N 35°25' E 139°39'0 0.0
2018-Jun-15 08:00N 35°25' E 139°39'0 0.0
2018-Jun-15 07:30N 35°25' E 139°39'0 0.0
2018-Jun-15 07:00N 35°25' E 139°39'0 0.0
2018-Jun-15 06:24N 35°25' E 139°39'0 0.0
2018-Jun-15 06:00N 35°25' E 139°39'0 0.0
2018-Jun-15 05:30N 35°25' E 139°39'0 0.0
2018-Jun-15 05:00N 35°25' E 139°39'1 2.3
2018-Jun-15 04:30N 35°24' E 139°40'3 6.0
2018-Jun-15 04:00N 35°23' E 139°44'1 2.5
2018-Jun-15 03:30N 35°24' E 139°44'4 7.1
2018-Jun-15 03:00N 35°27' E 139°47'5 9.8
2018-Jun-15 02:31N 35°32' E 139°48'0 0.0
2018-Jun-14 22:48N 35°32' E 139°48'0 0.2
2018-Jun-14 22:30N 35°32' E 139°48'2 4.6
2018-Jun-14 22:01N 35°30' E 139°50'0 0.9
2018-Jun-14 21:30N 35°30' E 139°50'0 0.0
2018-Jun-14 21:00N 35°30' E 139°50'0 0.0
2018-Jun-14 20:30N 35°30' E 139°50'0 0.0
2018-Jun-14 19:57N 35°30' E 139°50'0 0.1
2018-Jun-14 19:24N 35°30' E 139°50'0 0.2
2018-Jun-14 19:00N 35°30' E 139°50'0 0.0
2018-Jun-14 18:30N 35°30' E 139°50'0 0.0
2018-Jun-14 18:00N 35°30' E 139°50'0 0.0
2018-Jun-14 17:30N 35°30' E 139°50'0 0.0
2018-Jun-14 17:00N 35°30' E 139°50'0 0.0
2018-Jun-14 16:30N 35°30' E 139°50'0 0.1
2018-Jun-14 15:54N 35°30' E 139°50'0 0.0
2018-Jun-14 15:30N 35°30' E 139°50'0 0.0
2018-Jun-14 15:00N 35°30' E 139°50'0 0.1
2018-Jun-14 14:27N 35°30' E 139°50'0 0.1
2018-Jun-14 13:57N 35°30' E 139°50'0 0.1
2018-Jun-14 13:27N 35°30' E 139°50'0 0.0
2018-Jun-14 12:57N 35°30' E 139°50'0 0.0
2018-Jun-14 12:09N 35°30' E 139°50'0 0.4
2018-Jun-14 12:00N 35°30' E 139°50'0 0.0
2018-Jun-14 11:27N 35°30' E 139°50'0 0.2
2018-Jun-14 11:00N 35°30' E 139°50'0 0.6
2018-Jun-14 10:30N 35°30' E 139°51'612.3
2018-Jun-14 10:00N 35°30' E 139°58'2 0.3
2018-Jun-14 04:03N 35°29' E 140°00'0 4.4
2018-Jun-14 04:00N 35°29' E 140°00'3 3.5
2018-Jun-14 03:13N 35°30' E 139°57'2 9.3
2018-Jun-14 02:59N 35°30' E 139°54'510.8
2018-Jun-14 02:30N 35°31' E 139°48'1 0.2
2018-Jun-13 22:42N 35°32' E 139°48'0 0.1
2018-Jun-13 22:30N 35°32' E 139°48'2 3.5
2018-Jun-13 22:00N 35°31' E 139°50'0 0.2
2018-Jun-13 19:58N 35°31' E 139°50'0 0.1
2018-Jun-13 19:25N 35°31' E 139°50'0 0.0
2018-Jun-13 18:58N 35°31' E 139°50'0 0.1
2018-Jun-13 17:40N 35°31' E 139°50'0 0.0
2018-Jun-13 17:28N 35°31' E 139°50'0 0.0
2018-Jun-13 16:58N 35°31' E 139°50'0 0.0
2018-Jun-13 15:34N 35°31' E 139°50'0 0.0
2018-Jun-13 15:28N 35°31' E 139°50'0 0.0
2018-Jun-13 14:58N 35°31' E 139°50'0 0.1
2018-Jun-13 14:28N 35°31' E 139°50'2 5.4
2018-Jun-13 14:00N 35°29' E 139°48'714.4
2018-Jun-13 13:30N 35°24' E 139°42'2 4.3
2018-Jun-13 13:00N 35°25' E 139°39'0 0.0
2018-Jun-13 12:30N 35°25' E 139°39'0 0.0
2018-Jun-13 12:00N 35°25' E 139°39'0 0.0
2018-Jun-13 11:27N 35°25' E 139°39'0 0.0
2018-Jun-13 10:57N 35°25' E 139°39'0 0.0
2018-Jun-13 10:30N 35°25' E 139°39'0 0.0
2018-Jun-13 10:00N 35°25' E 139°39'0 0.0
2018-Jun-13 09:30N 35°25' E 139°39'0 0.0
2018-Jun-13 09:00N 35°25' E 139°39'0 0.0
2018-Jun-13 08:30N 35°25' E 139°39'0 0.0
2018-Jun-13 07:57N 35°25' E 139°39'0 0.0
2018-Jun-13 07:30N 35°25' E 139°39'0 0.0
2018-Jun-13 07:00N 35°25' E 139°39'0 0.0
2018-Jun-13 06:30N 35°25' E 139°39'0 0.0
2018-Jun-13 05:57N 35°25' E 139°39'0 0.0
2018-Jun-13 05:30N 35°25' E 139°39'0 1.0
2018-Jun-13 05:00N 35°24' E 139°40'4 7.2
2018-Jun-13 04:30N 35°22' E 139°43'0 0.3
2018-Jun-13 03:58N 35°22' E 139°44'0 0.0
2018-Jun-13 03:25N 35°22' E 139°44'0 0.1
2018-Jun-13 02:58N 35°22' E 139°44'0 0.0
2018-Jun-13 02:28N 35°22' E 139°44'0 0.1
2018-Jun-13 01:58N 35°22' E 139°43'0 0.0
2018-Jun-13 01:28N 35°22' E 139°43'0 0.0
2018-Jun-13 00:58N 35°22' E 139°43'0 0.0
2018-Jun-13 00:28N 35°22' E 139°43'0 0.1
2018-Jun-12 23:58N 35°22' E 139°44'0 0.0
2018-Jun-12 23:28N 35°22' E 139°44'0 0.0
2018-Jun-12 22:55N 35°22' E 139°44'0 0.0
2018-Jun-12 22:28N 35°22' E 139°44'0 0.0
2018-Jun-12 21:58N 35°22' E 139°44'0 0.0
2018-Jun-12 21:28N 35°22' E 139°44'0 0.0
2018-Jun-12 20:58N 35°22' E 139°44'0 0.0
2018-Jun-12 20:28N 35°22' E 139°44'0 0.0
2018-Jun-12 19:58N 35°22' E 139°44'0 0.1
2018-Jun-12 19:28N 35°22' E 139°43'0 0.1
2018-Jun-12 18:58N 35°22' E 139°44'0 0.1
2018-Jun-12 18:28N 35°22' E 139°43'0 0.1
2018-Jun-12 17:58N 35°22' E 139°44'0 0.0
2018-Jun-12 17:28N 35°22' E 139°44'0 0.0
2018-Jun-12 16:55N 35°22' E 139°44'0 0.1
2018-Jun-12 16:28N 35°22' E 139°43'0 0.0
2018-Jun-12 15:58N 35°22' E 139°43'0 0.0
2018-Jun-12 15:28N 35°22' E 139°43'0 0.0
2018-Jun-12 14:58N 35°22' E 139°43'0 0.0
2018-Jun-12 14:25N 35°22' E 139°43'0 0.0
2018-Jun-12 13:58N 35°22' E 139°43'0 0.0
2018-Jun-12 13:28N 35°22' E 139°43'0 0.0
2018-Jun-12 12:58N 35°22' E 139°43'0 0.0
2018-Jun-12 12:28N 35°22' E 139°43'0 0.0
2018-Jun-12 11:58N 35°22' E 139°43'0 0.0
2018-Jun-12 11:28N 35°22' E 139°43'0 0.0
2018-Jun-12 10:58N 35°22' E 139°43'0 0.1
2018-Jun-12 10:28N 35°22' E 139°44'0 0.0
2018-Jun-12 09:58N 35°22' E 139°44'0 0.0
2018-Jun-12 09:28N 35°22' E 139°44'0 0.1
2018-Jun-12 08:58N 35°22' E 139°44'0 0.3
2018-Jun-12 08:28N 35°22' E 139°44'0 0.2
2018-Jun-12 07:58N 35°22' E 139°44'0 0.0
2018-Jun-12 07:28N 35°22' E 139°44'0 0.1
2018-Jun-12 06:58N 35°22' E 139°44'0 0.0
2018-Jun-12 06:28N 35°22' E 139°44'0 0.0
2018-Jun-12 05:58N 35°22' E 139°44'0 0.0
2018-Jun-12 05:28N 35°22' E 139°44'0 0.0
2018-Jun-12 04:58N 35°22' E 139°44'0 0.0
2018-Jun-12 04:28N 35°22' E 139°44'0 0.0
2018-Jun-12 03:58N 35°22' E 139°44'0 0.1
2018-Jun-12 03:25N 35°22' E 139°44'2 4.7
2018-Jun-12 03:01N 35°21' E 139°42'2 4.3
2018-Jun-12 02:30N 35°23' E 139°41'2 4.6
2018-Jun-12 02:00N 35°23' E 139°44'0 0.9
2018-Jun-12 01:30N 35°23' E 139°44'4 7.6
2018-Jun-12 01:01N 35°26' E 139°46'714.5
2018-Jun-12 00:30N 35°31' E 139°53'611.3
2018-Jun-11 23:57N 35°34' E 140°00'6 0.3
2018-Jun-11 03:58N 35°30' E 139°54'613.3
2018-Jun-11 03:30N 35°26' E 139°48'611.1
2018-Jun-11 03:00N 35°22' E 139°44'0 0.2
2018-Jun-11 02:30N 35°22' E 139°44'0 0.0
2018-Jun-11 02:00N 35°22' E 139°44'0 0.0
2018-Jun-11 01:30N 35°22' E 139°44'0 0.0
2018-Jun-11 01:00N 35°22' E 139°44'0 0.1
2018-Jun-11 00:30N 35°22' E 139°44'3 6.4
2018-Jun-11 00:00N 35°24' E 139°40'1 2.1
2018-Jun-10 23:28N 35°25' E 139°39'1 2.6
2018-Jun-10 23:00N 35°24' E 139°40'3 5.6
2018-Jun-10 22:30N 35°23' E 139°43'0 0.0
2018-Jun-10 22:00N 35°23' E 139°43'0 0.0
2018-Jun-10 21:30N 35°23' E 139°43'0 0.0
2018-Jun-10 21:00N 35°23' E 139°43'0 0.0
2018-Jun-10 20:30N 35°23' E 139°43'0 0.0
2018-Jun-10 20:00N 35°23' E 139°43'0 0.0
2018-Jun-10 19:30N 35°23' E 139°43'0 0.0
2018-Jun-10 19:00N 35°23' E 139°43'0 0.0
2018-Jun-10 18:30N 35°23' E 139°43'0 0.0
2018-Jun-10 18:00N 35°23' E 139°43'0 0.0
2018-Jun-10 17:30N 35°23' E 139°43'0 0.0
2018-Jun-10 17:00N 35°23' E 139°43'0 0.0
2018-Jun-10 16:30N 35°23' E 139°43'0 0.0
2018-Jun-10 16:00N 35°23' E 139°43'0 0.0
2018-Jun-10 15:30N 35°23' E 139°43'0 0.0
2018-Jun-10 15:00N 35°23' E 139°43'0 0.1
2018-Jun-10 14:00N 35°23' E 139°43'0 0.0
2018-Jun-10 13:30N 35°23' E 139°43'0 0.0
2018-Jun-10 13:00N 35°23' E 139°43'0 0.0
2018-Jun-10 12:30N 35°23' E 139°43'0 0.0
2018-Jun-10 12:00N 35°23' E 139°43'0 0.0
2018-Jun-10 11:30N 35°23' E 139°43'0 0.1
2018-Jun-10 11:00N 35°23' E 139°43'0 0.1
2018-Jun-10 10:30N 35°23' E 139°43'0 0.0
2018-Jun-10 10:00N 35°23' E 139°43'0 0.0
2018-Jun-10 09:30N 35°23' E 139°43'0 0.0
2018-Jun-10 09:00N 35°23' E 139°43'0 0.1
2018-Jun-10 08:30N 35°23' E 139°43'0 0.0
2018-Jun-10 08:00N 35°23' E 139°43'0 0.0
2018-Jun-10 07:30N 35°23' E 139°43'0 0.2
2018-Jun-10 07:00N 35°23' E 139°43'5 9.9
2018-Jun-10 06:30N 35°26' E 139°48'815.7
2018-Jun-10 06:00N 35°32' E 139°55'3 0.4
2018-Jun-09 22:01N 35°33' E 139°58'0 0.3
2018-Jun-09 21:39N 35°33' E 139°58'  

Dump ship's entire track history